sensor_id;sensor_type;location;lat;lon;timestamp;temperature;humidity
54158;DHT22;40065;49.894;10.358;2023-02-19T00:03:13;10.70;99.90
54158;DHT22;40065;49.894;10.358;2023-02-19T00:08:14;10.60;99.90
54158;DHT22;40065;49.894;10.358;2023-02-19T00:13:16;10.50;99.90
54158;DHT22;40065;49.894;10.358;2023-02-19T00:18:19;10.40;99.90
54158;DHT22;40065;49.894;10.358;2023-02-19T00:23:21;10.40;99.90
54158;DHT22;40065;49.894;10.358;2023-02-19T00:28:23;10.30;99.90
54158;DHT22;40065;49.894;10.358;2023-02-19T00:33:24;10.20;99.90
54158;DHT22;40065;49.894;10.358;2023-02-19T00:38:26;10.20;99.90
54158;DHT22;40065;49.894;10.358;2023-02-19T00:43:28;10.20;99.90
54158;DHT22;40065;49.894;10.358;2023-02-19T00:48:30;10.10;99.90
54158;DHT22;40065;49.894;10.358;2023-02-19T00:53:31;10.20;99.90
54158;DHT22;40065;49.894;10.358;2023-02-19T00:58:33;10.10;99.90
54158;DHT22;40065;49.894;10.358;2023-02-19T01:03:36;10.00;99.90
54158;DHT22;40065;49.894;10.358;2023-02-19T01:08:38;10.00;99.90
54158;DHT22;40065;49.894;10.358;2023-02-19T01:13:40;9.90;99.90
54158;DHT22;40065;49.894;10.358;2023-02-19T01:18:43;9.90;99.90
54158;DHT22;40065;49.894;10.358;2023-02-19T01:23:45;9.80;99.90
54158;DHT22;40065;49.894;10.358;2023-02-19T01:28:47;9.90;99.90
54158;DHT22;40065;49.894;10.358;2023-02-19T01:33:51;9.90;99.90
54158;DHT22;40065;49.894;10.358;2023-02-19T01:38:54;9.80;99.90
54158;DHT22;40065;49.894;10.358;2023-02-19T01:44:03;9.70;99.90
54158;DHT22;40065;49.894;10.358;2023-02-19T01:49:22;9.80;99.90
54158;DHT22;40065;49.894;10.358;2023-02-19T01:54:30;9.80;99.90
54158;DHT22;40065;49.894;10.358;2023-02-19T01:59:33;9.60;99.90
54158;DHT22;40065;49.894;10.358;2023-02-19T02:04:35;9.60;99.90
54158;DHT22;40065;49.894;10.358;2023-02-19T02:09:36;9.60;99.90
54158;DHT22;40065;49.894;10.358;2023-02-19T02:14:57;9.60;99.90
54158;DHT22;40065;49.894;10.358;2023-02-19T02:25:56;9.60;99.90
54158;DHT22;40065;49.894;10.358;2023-02-19T02:36:31;9.70;99.90
54158;DHT22;40065;49.894;10.358;2023-02-19T02:41:34;9.60;99.90
54158;DHT22;40065;49.894;10.358;2023-02-19T02:46:43;9.60;99.90
54158;DHT22;40065;49.894;10.358;2023-02-19T02:51:50;9.70;99.90
54158;DHT22;40065;49.894;10.358;2023-02-19T02:56:57;9.70;99.90
54158;DHT22;40065;49.894;10.358;2023-02-19T03:02:19;9.60;99.90
54158;DHT22;40065;49.894;10.358;2023-02-19T03:07:24;9.80;99.90
54158;DHT22;40065;49.894;10.358;2023-02-19T03:12:29;9.80;99.90
54158;DHT22;40065;49.894;10.358;2023-02-19T03:17:53;9.80;99.90
54158;DHT22;40065;49.894;10.358;2023-02-19T03:23:16;9.90;99.90
54158;DHT22;40065;49.894;10.358;2023-02-19T03:28:22;9.80;99.90
54158;DHT22;40065;49.894;10.358;2023-02-19T03:33:52;9.90;99.90
54158;DHT22;40065;49.894;10.358;2023-02-19T03:39:05;9.90;99.90
54158;DHT22;40065;49.894;10.358;2023-02-19T03:44:16;10.00;99.90
54158;DHT22;40065;49.894;10.358;2023-02-19T03:49:38;10.00;99.90
54158;DHT22;40065;49.894;10.358;2023-02-19T03:54:46;10.00;99.90
54158;DHT22;40065;49.894;10.358;2023-02-19T04:05:17;10.10;99.90
54158;DHT22;40065;49.894;10.358;2023-02-19T04:10:20;10.30;99.90
54158;DHT22;40065;49.894;10.358;2023-02-19T04:15:29;10.50;99.90
54158;DHT22;40065;49.894;10.358;2023-02-19T04:20:38;10.50;99.90
54158;DHT22;40065;49.894;10.358;2023-02-19T04:25:43;10.50;99.90
54158;DHT22;40065;49.894;10.358;2023-02-19T04:30:45;10.60;99.90
54158;DHT22;40065;49.894;10.358;2023-02-19T04:35:47;10.50;99.90
54158;DHT22;40065;49.894;10.358;2023-02-19T04:40:49;10.50;99.90
54158;DHT22;40065;49.894;10.358;2023-02-19T04:45:51;10.60;99.90
54158;DHT22;40065;49.894;10.358;2023-02-19T04:50:53;10.50;99.90
54158;DHT22;40065;49.894;10.358;2023-02-19T04:55:55;10.60;99.90
54158;DHT22;40065;49.894;10.358;2023-02-19T05:00:57;10.60;99.90
54158;DHT22;40065;49.894;10.358;2023-02-19T05:06:04;10.70;99.90
54158;DHT22;40065;49.894;10.358;2023-02-19T05:11:09;10.60;99.90
54158;DHT22;40065;49.894;10.358;2023-02-19T05:16:13;10.70;99.90
54158;DHT22;40065;49.894;10.358;2023-02-19T05:21:17;10.60;99.90
54158;DHT22;40065;49.894;10.358;2023-02-19T05:26:21;10.50;99.90
54158;DHT22;40065;49.894;10.358;2023-02-19T05:31:23;10.50;99.90
54158;DHT22;40065;49.894;10.358;2023-02-19T05:36:25;10.60;99.90
54158;DHT22;40065;49.894;10.358;2023-02-19T05:41:28;10.50;99.90
54158;DHT22;40065;49.894;10.358;2023-02-19T05:46:30;10.60;99.90
54158;DHT22;40065;49.894;10.358;2023-02-19T05:51:32;10.60;99.90
54158;DHT22;40065;49.894;10.358;2023-02-19T05:56:41;10.60;99.90
54158;DHT22;40065;49.894;10.358;2023-02-19T06:01:43;10.50;99.90
54158;DHT22;40065;49.894;10.358;2023-02-19T06:06:46;10.50;99.90
54158;DHT22;40065;49.894;10.358;2023-02-19T06:11:48;10.50;99.90
54158;DHT22;40065;49.894;10.358;2023-02-19T06:16:50;10.30;99.90
54158;DHT22;40065;49.894;10.358;2023-02-19T06:21:52;10.20;99.90
54158;DHT22;40065;49.894;10.358;2023-02-19T06:26:53;10.20;99.90
54158;DHT22;40065;49.894;10.358;2023-02-19T06:31:55;10.20;99.90
54158;DHT22;40065;49.894;10.358;2023-02-19T06:36:57;10.20;99.90
54158;DHT22;40065;49.894;10.358;2023-02-19T06:41:59;10.20;99.90
54158;DHT22;40065;49.894;10.358;2023-02-19T06:47:01;10.30;99.90
54158;DHT22;40065;49.894;10.358;2023-02-19T06:52:03;10.40;99.90
54158;DHT22;40065;49.894;10.358;2023-02-19T06:57:05;10.40;99.90
54158;DHT22;40065;49.894;10.358;2023-02-19T07:02:10;10.30;99.90
54158;DHT22;40065;49.894;10.358;2023-02-19T07:07:12;10.50;99.90
54158;DHT22;40065;49.894;10.358;2023-02-19T07:12:14;10.40;99.90
54158;DHT22;40065;49.894;10.358;2023-02-19T07:17:16;10.30;99.90
54158;DHT22;40065;49.894;10.358;2023-02-19T07:22:18;10.30;99.90
54158;DHT22;40065;49.894;10.358;2023-02-19T07:27:19;10.30;99.90
54158;DHT22;40065;49.894;10.358;2023-02-19T07:32:21;10.30;99.90
54158;DHT22;40065;49.894;10.358;2023-02-19T07:37:23;10.30;99.90
54158;DHT22;40065;49.894;10.358;2023-02-19T07:42:25;10.50;99.90
54158;DHT22;40065;49.894;10.358;2023-02-19T07:47:28;10.40;99.90
54158;DHT22;40065;49.894;10.358;2023-02-19T07:52:30;10.60;99.90
54158;DHT22;40065;49.894;10.358;2023-02-19T07:57:31;10.50;99.90
54158;DHT22;40065;49.894;10.358;2023-02-19T08:02:33;10.60;99.90
54158;DHT22;40065;49.894;10.358;2023-02-19T08:07:53;10.60;99.90
54158;DHT22;40065;49.894;10.358;2023-02-19T08:12:59;10.70;99.90
54158;DHT22;40065;49.894;10.358;2023-02-19T08:18:23;10.80;99.90
54158;DHT22;40065;49.894;10.358;2023-02-19T08:23:26;10.80;99.90
54158;DHT22;40065;49.894;10.358;2023-02-19T08:28:29;10.90;99.90
54158;DHT22;40065;49.894;10.358;2023-02-19T08:33:31;11.10;99.90
54158;DHT22;40065;49.894;10.358;2023-02-19T08:38:34;10.90;99.90
54158;DHT22;40065;49.894;10.358;2023-02-19T08:43:36;11.00;99.90
54158;DHT22;40065;49.894;10.358;2023-02-19T08:48:39;10.90;99.90
54158;DHT22;40065;49.894;10.358;2023-02-19T08:53:40;10.90;99.90
54158;DHT22;40065;49.894;10.358;2023-02-19T08:58:44;11.00;99.90
54158;DHT22;40065;49.894;10.358;2023-02-19T09:03:46;10.90;99.90
54158;DHT22;40065;49.894;10.358;2023-02-19T09:08:47;10.90;99.90
54158;DHT22;40065;49.894;10.358;2023-02-19T09:13:49;10.90;99.90
54158;DHT22;40065;49.894;10.358;2023-02-19T09:18:51;10.90;99.90
54158;DHT22;40065;49.894;10.358;2023-02-19T09:23:52;10.90;99.90
54158;DHT22;40065;49.894;10.358;2023-02-19T09:28:54;10.90;99.90
54158;DHT22;40065;49.894;10.358;2023-02-19T09:33:56;10.90;99.90
54158;DHT22;40065;49.894;10.358;2023-02-19T09:38:58;10.90;99.90
54158;DHT22;40065;49.894;10.358;2023-02-19T09:44:08;10.90;99.90
54158;DHT22;40065;49.894;10.358;2023-02-19T09:49:17;11.30;99.90
54158;DHT22;40065;49.894;10.358;2023-02-19T09:54:25;11.20;99.90
54158;DHT22;40065;49.894;10.358;2023-02-19T09:59:43;11.30;99.90
54158;DHT22;40065;49.894;10.358;2023-02-19T10:04:47;11.30;99.90
54158;DHT22;40065;49.894;10.358;2023-02-19T10:09:58;11.10;99.90
54158;DHT22;40065;49.894;10.358;2023-02-19T10:15:31;11.10;99.90
54158;DHT22;40065;49.894;10.358;2023-02-19T10:20:35;11.10;99.90
54158;DHT22;40065;49.894;10.358;2023-02-19T10:25:41;11.30;99.90
54158;DHT22;40065;49.894;10.358;2023-02-19T10:30:49;12.30;99.90
54158;DHT22;40065;49.894;10.358;2023-02-19T10:35:54;12.30;99.90
54158;DHT22;40065;49.894;10.358;2023-02-19T10:41:03;12.20;99.90
54158;DHT22;40065;49.894;10.358;2023-02-19T10:46:24;12.20;99.90
54158;DHT22;40065;49.894;10.358;2023-02-19T10:51:38;12.10;99.90
54158;DHT22;40065;49.894;10.358;2023-02-19T10:56:41;12.00;99.90
54158;DHT22;40065;49.894;10.358;2023-02-19T11:02:07;11.80;99.90
54158;DHT22;40065;49.894;10.358;2023-02-19T11:07:17;11.90;99.90
54158;DHT22;40065;49.894;10.358;2023-02-19T11:12:27;11.70;99.90
54158;DHT22;40065;49.894;10.358;2023-02-19T11:17:30;11.60;99.90
54158;DHT22;40065;49.894;10.358;2023-02-19T11:22:37;11.30;99.90
54158;DHT22;40065;49.894;10.358;2023-02-19T11:28:02;11.40;99.90
54158;DHT22;40065;49.894;10.358;2023-02-19T11:38:25;11.20;99.90
54158;DHT22;40065;49.894;10.358;2023-02-19T11:44:01;10.90;99.90
54158;DHT22;40065;49.894;10.358;2023-02-19T11:54:49;11.10;99.90
54158;DHT22;40065;49.894;10.358;2023-02-19T12:00:11;11.10;99.90
54158;DHT22;40065;49.894;10.358;2023-02-19T12:05:30;11.20;99.90
54158;DHT22;40065;49.894;10.358;2023-02-19T12:21:16;12.10;99.90
54158;DHT22;40065;49.894;10.358;2023-02-19T12:32:12;14.70;99.90
54158;DHT22;40065;49.894;10.358;2023-02-19T12:37:32;14.30;99.90
54158;DHT22;40065;49.894;10.358;2023-02-19T12:42:50;14.40;99.90
54158;DHT22;40065;49.894;10.358;2023-02-19T12:48:09;13.50;99.90
54158;DHT22;40065;49.894;10.358;2023-02-19T12:53:28;13.10;99.90
54158;DHT22;40065;49.894;10.358;2023-02-19T12:58:54;12.80;99.90
54158;DHT22;40065;49.894;10.358;2023-02-19T13:04:21;12.20;99.90
54158;DHT22;40065;49.894;10.358;2023-02-19T13:09:40;12.00;99.90
54158;DHT22;40065;49.894;10.358;2023-02-19T13:14:59;12.00;99.90
54158;DHT22;40065;49.894;10.358;2023-02-19T13:25:53;11.80;99.90
54158;DHT22;40065;49.894;10.358;2023-02-19T13:36:25;11.70;99.90
54158;DHT22;40065;49.894;10.358;2023-02-19T13:41:33;11.50;99.90
54158;DHT22;40065;49.894;10.358;2023-02-19T13:46:38;11.30;99.90
54158;DHT22;40065;49.894;10.358;2023-02-19T13:51:46;11.30;99.90
54158;DHT22;40065;49.894;10.358;2023-02-19T13:56:56;11.40;99.90
54158;DHT22;40065;49.894;10.358;2023-02-19T14:12:32;12.60;99.90
54158;DHT22;40065;49.894;10.358;2023-02-19T14:17:40;12.70;99.90
54158;DHT22;40065;49.894;10.358;2023-02-19T14:27:49;12.10;99.90
54158;DHT22;40065;49.894;10.358;2023-02-19T14:32:52;12.90;99.90
54158;DHT22;40065;49.894;10.358;2023-02-19T14:38:17;13.50;99.90
54158;DHT22;40065;49.894;10.358;2023-02-19T14:43:23;14.40;99.90
54158;DHT22;40065;49.894;10.358;2023-02-19T14:48:35;15.00;99.90
54158;DHT22;40065;49.894;10.358;2023-02-19T14:53:41;14.90;99.90
54158;DHT22;40065;49.894;10.358;2023-02-19T14:58:43;15.50;99.80
54158;DHT22;40065;49.894;10.358;2023-02-19T15:03:48;15.00;99.90
54158;DHT22;40065;49.894;10.358;2023-02-19T15:08:52;14.70;99.90
54158;DHT22;40065;49.894;10.358;2023-02-19T15:14:00;14.40;99.90
54158;DHT22;40065;49.894;10.358;2023-02-19T15:19:05;13.80;99.90
54158;DHT22;40065;49.894;10.358;2023-02-19T15:24:09;12.90;99.90
54158;DHT22;40065;49.894;10.358;2023-02-19T15:29:15;12.60;99.90
54158;DHT22;40065;49.894;10.358;2023-02-19T15:34:20;12.60;99.90
54158;DHT22;40065;49.894;10.358;2023-02-19T15:39:24;12.40;99.90
54158;DHT22;40065;49.894;10.358;2023-02-19T15:49:56;11.90;99.90
54158;DHT22;40065;49.894;10.358;2023-02-19T16:00:40;11.30;99.90
54158;DHT22;40065;49.894;10.358;2023-02-19T16:06:00;10.90;99.90
54158;DHT22;40065;49.894;10.358;2023-02-19T16:16:33;11.00;99.90
54158;DHT22;40065;49.894;10.358;2023-02-19T16:21:37;11.00;99.90
54158;DHT22;40065;49.894;10.358;2023-02-19T16:26:40;10.90;99.90
54158;DHT22;40065;49.894;10.358;2023-02-19T16:31:49;10.80;99.90
54158;DHT22;40065;49.894;10.358;2023-02-19T16:36:52;10.80;99.90
54158;DHT22;40065;49.894;10.358;2023-02-19T16:47:13;10.60;99.90
54158;DHT22;40065;49.894;10.358;2023-02-19T16:52:16;10.70;99.90
54158;DHT22;40065;49.894;10.358;2023-02-19T16:57:18;10.60;99.90
54158;DHT22;40065;49.894;10.358;2023-02-19T17:02:22;10.60;99.90
54158;DHT22;40065;49.894;10.358;2023-02-19T17:07:25;10.50;99.90
54158;DHT22;40065;49.894;10.358;2023-02-19T17:12:28;10.40;99.90
54158;DHT22;40065;49.894;10.358;2023-02-19T17:17:29;10.30;99.90
54158;DHT22;40065;49.894;10.358;2023-02-19T17:22:31;10.40;99.90
54158;DHT22;40065;49.894;10.358;2023-02-19T17:27:33;10.40;99.90
54158;DHT22;40065;49.894;10.358;2023-02-19T17:32:35;10.40;99.90
54158;DHT22;40065;49.894;10.358;2023-02-19T17:37:37;10.20;99.90
54158;DHT22;40065;49.894;10.358;2023-02-19T17:42:39;10.00;99.90
54158;DHT22;40065;49.894;10.358;2023-02-19T17:47:41;9.90;99.90
54158;DHT22;40065;49.894;10.358;2023-02-19T17:52:43;9.70;99.90
54158;DHT22;40065;49.894;10.358;2023-02-19T17:57:48;10.00;99.90
54158;DHT22;40065;49.894;10.358;2023-02-19T18:02:51;10.10;99.90
54158;DHT22;40065;49.894;10.358;2023-02-19T18:07:53;10.00;99.90
54158;DHT22;40065;49.894;10.358;2023-02-19T18:12:55;10.00;99.90
54158;DHT22;40065;49.894;10.358;2023-02-19T18:17:57;10.10;99.90
54158;DHT22;40065;49.894;10.358;2023-02-19T18:22:58;10.00;99.90
54158;DHT22;40065;49.894;10.358;2023-02-19T18:28:00;9.90;99.90
54158;DHT22;40065;49.894;10.358;2023-02-19T18:33:02;9.90;99.90
54158;DHT22;40065;49.894;10.358;2023-02-19T18:38:04;9.80;99.90
54158;DHT22;40065;49.894;10.358;2023-02-19T18:43:07;9.80;99.90
54158;DHT22;40065;49.894;10.358;2023-02-19T18:48:08;9.90;99.90
54158;DHT22;40065;49.894;10.358;2023-02-19T18:53:10;9.80;99.90
54158;DHT22;40065;49.894;10.358;2023-02-19T18:58:12;9.90;99.90
54158;DHT22;40065;49.894;10.358;2023-02-19T19:03:14;10.00;99.90
54158;DHT22;40065;49.894;10.358;2023-02-19T19:08:16;10.00;99.90
54158;DHT22;40065;49.894;10.358;2023-02-19T19:13:18;9.80;99.90
54158;DHT22;40065;49.894;10.358;2023-02-19T19:18:20;9.80;99.90
54158;DHT22;40065;49.894;10.358;2023-02-19T19:23:22;9.80;99.90
54158;DHT22;40065;49.894;10.358;2023-02-19T19:28:24;9.80;99.90
54158;DHT22;40065;49.894;10.358;2023-02-19T19:33:25;9.80;99.90
54158;DHT22;40065;49.894;10.358;2023-02-19T19:38:28;9.70;99.90
54158;DHT22;40065;49.894;10.358;2023-02-19T19:43:32;9.70;99.90
54158;DHT22;40065;49.894;10.358;2023-02-19T19:48:38;9.80;99.90
54158;DHT22;40065;49.894;10.358;2023-02-19T19:53:40;9.70;99.90
54158;DHT22;40065;49.894;10.358;2023-02-19T19:58:42;9.80;99.90
54158;DHT22;40065;49.894;10.358;2023-02-19T20:03:44;9.60;99.90
54158;DHT22;40065;49.894;10.358;2023-02-19T20:08:45;9.60;99.90
54158;DHT22;40065;49.894;10.358;2023-02-19T20:13:49;9.70;99.90
54158;DHT22;40065;49.894;10.358;2023-02-19T20:18:50;9.60;99.90
54158;DHT22;40065;49.894;10.358;2023-02-19T20:23:52;9.60;99.90
54158;DHT22;40065;49.894;10.358;2023-02-19T20:28:54;9.60;99.90
54158;DHT22;40065;49.894;10.358;2023-02-19T20:33:57;9.60;99.90
54158;DHT22;40065;49.894;10.358;2023-02-19T20:38:58;9.70;99.90
54158;DHT22;40065;49.894;10.358;2023-02-19T20:44:00;9.70;99.90
54158;DHT22;40065;49.894;10.358;2023-02-19T20:49:02;9.60;99.90
54158;DHT22;40065;49.894;10.358;2023-02-19T20:54:04;9.50;99.90
54158;DHT22;40065;49.894;10.358;2023-02-19T20:59:06;9.60;99.90
54158;DHT22;40065;49.894;10.358;2023-02-19T21:04:09;9.70;99.90
54158;DHT22;40065;49.894;10.358;2023-02-19T21:09:11;9.60;99.90
54158;DHT22;40065;49.894;10.358;2023-02-19T21:14:14;9.50;99.90
54158;DHT22;40065;49.894;10.358;2023-02-19T21:19:16;9.60;99.90
54158;DHT22;40065;49.894;10.358;2023-02-19T21:24:18;9.50;99.90
54158;DHT22;40065;49.894;10.358;2023-02-19T21:29:21;9.60;99.90
54158;DHT22;40065;49.894;10.358;2023-02-19T21:34:27;9.50;99.90
54158;DHT22;40065;49.894;10.358;2023-02-19T21:39:29;9.40;99.90
54158;DHT22;40065;49.894;10.358;2023-02-19T21:44:32;9.50;99.90
54158;DHT22;40065;49.894;10.358;2023-02-19T21:49:34;9.40;99.90
54158;DHT22;40065;49.894;10.358;2023-02-19T21:54:36;9.50;99.90
54158;DHT22;40065;49.894;10.358;2023-02-19T21:59:38;9.40;99.90
54158;DHT22;40065;49.894;10.358;2023-02-19T22:04:39;9.40;99.90
54158;DHT22;40065;49.894;10.358;2023-02-19T22:09:41;9.50;99.90
54158;DHT22;40065;49.894;10.358;2023-02-19T22:14:43;9.40;99.90
54158;DHT22;40065;49.894;10.358;2023-02-19T22:19:45;9.30;99.90
54158;DHT22;40065;49.894;10.358;2023-02-19T22:24:47;9.40;99.90
54158;DHT22;40065;49.894;10.358;2023-02-19T22:29:49;9.40;99.90
54158;DHT22;40065;49.894;10.358;2023-02-19T22:34:51;9.20;99.90
54158;DHT22;40065;49.894;10.358;2023-02-19T22:39:53;9.30;99.90
54158;DHT22;40065;49.894;10.358;2023-02-19T22:44:54;9.20;99.90
54158;DHT22;40065;49.894;10.358;2023-02-19T22:49:56;9.30;99.90
54158;DHT22;40065;49.894;10.358;2023-02-19T22:54:58;9.40;99.90
54158;DHT22;40065;49.894;10.358;2023-02-19T23:00:00;9.30;99.90
54158;DHT22;40065;49.894;10.358;2023-02-19T23:05:02;9.40;99.90
54158;DHT22;40065;49.894;10.358;2023-02-19T23:10:04;9.30;99.90
54158;DHT22;40065;49.894;10.358;2023-02-19T23:15:07;9.20;99.90
54158;DHT22;40065;49.894;10.358;2023-02-19T23:20:10;9.10;99.90
54158;DHT22;40065;49.894;10.358;2023-02-19T23:25:12;9.10;99.90
54158;DHT22;40065;49.894;10.358;2023-02-19T23:30:14;9.00;99.90
54158;DHT22;40065;49.894;10.358;2023-02-19T23:35:17;8.90;99.90
54158;DHT22;40065;49.894;10.358;2023-02-19T23:40:19;9.00;99.90
54158;DHT22;40065;49.894;10.358;2023-02-19T23:45:21;9.00;99.90
54158;DHT22;40065;49.894;10.358;2023-02-19T23:50:23;8.90;99.90
54158;DHT22;40065;49.894;10.358;2023-02-19T23:55:25;9.00;99.90
